Time;durP1;ratioP1;P1;durP2;ratioP2;P2;SDS_P1;SDS_P2;PMS_P1;PMS_P2;Temp;Humidity;BMP_temperature;BMP_pressure;BME280_temperature;BME280_humidity;BME280_pressure;Samples;Min_cycle;Max_cycle;Signal;HPM_P1;HPM_P2
2022/05/04 00:01:32;;;;;;;37.97;21.05;;;;;;;;;;5080560;28;20036;-69
2022/05/04 00:03:57;;;;;;;31.13;17.48;;;;;;;;;;5082586;28;20381;-66
2022/05/04 00:06:22;;;;;;;21.58;13.38;;;;;;;;;;5081804;28;20052;-72
2022/05/04 00:08:48;;;;;;;18.23;11.07;;;;;;;;;;5064909;28;20055;-69
2022/05/04 00:11:14;;;;;;;20.48;12.07;;;;;;;;;;5082352;28;20024;-65
2022/05/04 00:13:39;;;;;;;19.80;12.00;;;;;;;;;;5073960;28;20713;-69
2022/05/04 00:16:06;;;;;;;18.30;11.23;;;;;;;;;;5075070;28;20039;-66
2022/05/04 00:18:31;;;;;;;12.05;7.53;;;;;;;;;;5081231;28;20035;-66
2022/05/04 00:20:57;;;;;;;11.20;6.07;;;;;;;;;;5080540;28;20032;-66
2022/05/04 00:23:23;;;;;;;7.45;5.55;;;;;;;;;;5082314;28;20039;-66
2022/05/04 00:25:48;;;;;;;8.63;5.00;;;;;;;;;;5081704;28;20024;-67
2022/05/04 00:28:13;;;;;;;7.05;5.50;;;;;;;;;;5074983;28;20392;-74
2022/05/04 00:30:39;;;;;;;9.25;6.38;;;;;;;;;;5070665;28;20498;-69
2022/05/04 00:33:04;;;;;;;13.98;8.07;;;;;;;;;;5069484;28;20024;-66
2022/05/04 00:35:29;;;;;;;12.50;8.70;;;;;;;;;;5073027;28;20346;-69
2022/05/04 00:37:55;;;;;;;17.70;11.30;;;;;;;;;;5082512;28;20032;-66
2022/05/04 00:40:20;;;;;;;27.48;14.82;;;;;;;;;;5081957;28;20042;-67
2022/05/04 00:42:45;;;;;;;20.30;11.05;;;;;;;;;;5081775;28;20028;-65
2022/05/04 00:45:11;;;;;;;14.73;9.15;;;;;;;;;;5070710;28;20035;-66
2022/05/04 00:47:36;;;;;;;27.20;16.13;;;;;;;;;;5082150;28;20016;-66
2022/05/04 00:50:04;;;;;;;24.40;15.25;;;;;;;;;;5070576;28;20036;-72
2022/05/04 00:52:30;;;;;;;21.73;15.50;;;;;;;;;;5081303;28;20032;-67
2022/05/04 00:54:56;;;;;;;20.45;13.90;;;;;;;;;;5078852;28;20039;-72
2022/05/04 01:00:07;;;;;;;13.80;10.38;;;;;;;;;;5081367;28;20438;-72
2022/05/04 01:02:33;;;;;;;9.95;7.32;;;;;;;;;;5081796;28;20020;-65
2022/05/04 01:04:58;;;;;;;9.75;7.00;;;;;;;;;;5081502;28;20061;-65
2022/05/04 01:07:24;;;;;;;8.90;6.07;;;;;;;;;;5056008;28;20056;-71
2022/05/04 01:09:51;;;;;;;6.45;4.68;;;;;;;;;;5074934;28;20052;-68
2022/05/04 01:12:21;;;;;;;4.38;3.72;;;;;;;;;;5077519;28;20107;-65
2022/05/04 01:14:46;;;;;;;4.28;3.45;;;;;;;;;;5074639;28;20034;-68
2022/05/04 01:17:11;;;;;;;5.13;4.47;;;;;;;;;;5080113;28;20020;-65
2022/05/04 01:19:37;;;;;;;9.25;4.32;;;;;;;;;;5080378;28;20036;-71
2022/05/04 01:22:03;;;;;;;6.25;5.03;;;;;;;;;;5080802;28;20067;-67
2022/05/04 01:24:28;;;;;;;9.45;5.40;;;;;;;;;;5068286;28;20135;-66
2022/05/04 01:26:54;;;;;;;12.57;8.48;;;;;;;;;;5080169;28;20098;-66
2022/05/04 01:29:19;;;;;;;11.50;8.25;;;;;;;;;;5069021;28;20042;-72
2022/05/04 01:31:44;;;;;;;10.65;7.40;;;;;;;;;;5079946;28;20020;-67
2022/05/04 01:34:10;;;;;;;7.95;6.00;;;;;;;;;;5080699;28;20339;-71
2022/05/04 01:36:35;;;;;;;8.05;6.20;;;;;;;;;;5080616;28;20020;-70
2022/05/04 01:39:00;;;;;;;7.90;6.10;;;;;;;;;;5071076;28;20074;-72
2022/05/04 01:44:10;;;;;;;5.70;4.75;;;;;;;;;;5080422;28;20144;-69
2022/05/04 01:46:35;;;;;;;7.82;5.10;;;;;;;;;;5080818;28;20069;-67
2022/05/04 01:49:00;;;;;;;7.50;4.78;;;;;;;;;;5080823;28;20032;-66
2022/05/04 01:51:26;;;;;;;7.32;4.93;;;;;;;;;;5080213;28;20040;-67
2022/05/04 01:53:51;;;;;;;6.80;4.65;;;;;;;;;;5071669;28;20036;-66
2022/05/04 01:56:16;;;;;;;6.07;4.97;;;;;;;;;;5068345;28;20050;-68
2022/05/04 01:58:41;;;;;;;12.63;7.35;;;;;;;;;;5077243;28;20776;-71
2022/05/04 02:01:07;;;;;;;11.45;7.40;;;;;;;;;;5080213;28;20032;-69
2022/05/04 02:03:32;;;;;;;11.70;7.68;;;;;;;;;;5080067;28;20111;-66
2022/05/04 02:05:58;;;;;;;7.70;5.60;;;;;;;;;;5079985;28;20719;-69
2022/05/04 02:08:24;;;;;;;7.82;5.88;;;;;;;;;;5080838;28;20032;-67
2022/05/04 02:10:49;;;;;;;11.75;7.85;;;;;;;;;;5068478;28;20042;-66
2022/05/04 02:13:15;;;;;;;12.65;7.65;;;;;;;;;;5075672;28;20024;-68
2022/05/04 02:15:40;;;;;;;10.27;6.47;;;;;;;;;;5067651;28;20024;-67
2022/05/04 02:18:06;;;;;;;10.07;6.78;;;;;;;;;;5048384;28;20047;-66
2022/05/04 02:20:31;;;;;;;9.18;7.05;;;;;;;;;;5070919;28;20964;-67
2022/05/04 02:22:56;;;;;;;9.00;6.13;;;;;;;;;;5084049;28;20445;-71
2022/05/04 02:25:22;;;;;;;10.13;6.30;;;;;;;;;;5084153;28;20024;-69
2022/05/04 02:27:47;;;;;;;10.45;5.72;;;;;;;;;;5072986;28;20367;-72
2022/05/04 02:30:13;;;;;;;8.13;5.97;;;;;;;;;;5077784;28;20039;-67
2022/05/04 02:32:39;;;;;;;5.82;4.90;;;;;;;;;;5073836;28;20047;-66
2022/05/04 02:37:54;;;;;;;6.35;4.80;;;;;;;;;;5073694;28;20512;-65
2022/05/04 02:40:19;;;;;;;8.93;4.68;;;;;;;;;;5067944;28;20124;-71
2022/05/04 02:42:46;;;;;;;6.80;4.13;;;;;;;;;;5087616;28;20099;-69
2022/05/04 02:45:11;;;;;;;3.65;3.17;;;;;;;;;;5073466;28;21154;-68
2022/05/04 02:47:37;;;;;;;3.63;3.33;;;;;;;;;;5083216;28;20035;-68
2022/05/04 02:50:03;;;;;;;5.53;3.92;;;;;;;;;;5083909;28;20088;-66
2022/05/04 02:52:28;;;;;;;7.68;5.03;;;;;;;;;;5082739;28;20035;-67
2022/05/04 02:54:53;;;;;;;7.10;4.82;;;;;;;;;;5081843;28;20331;-67
2022/05/04 02:57:18;;;;;;;4.82;4.00;;;;;;;;;;5072770;28;20024;-67
2022/05/04 02:59:44;;;;;;;6.22;4.30;;;;;;;;;;5074964;28;20450;-67
2022/05/04 03:02:27;;;;;;;6.82;5.15;;;;;;;;;;5078067;28;20060;-66
2022/05/04 03:04:56;;;;;;;10.00;6.13;;;;;;;;;;5078146;28;20028;-72
2022/05/04 03:07:21;;;;;;;10.75;6.40;;;;;;;;;;5073875;28;20078;-66
2022/05/04 03:09:46;;;;;;;7.72;5.55;;;;;;;;;;5083319;28;20015;-71
2022/05/04 03:12:12;;;;;;;7.82;5.47;;;;;;;;;;5083318;28;20028;-66
2022/05/04 03:14:37;;;;;;;8.63;4.82;;;;;;;;;;5082844;28;20095;-68
2022/05/04 03:17:02;;;;;;;7.15;4.07;;;;;;;;;;5082758;28;20427;-72
2022/05/04 03:19:28;;;;;;;7.72;4.80;;;;;;;;;;5082863;28;20073;-70
2022/05/04 03:21:53;;;;;;;5.82;3.78;;;;;;;;;;5083281;28;20039;-69
2022/05/04 03:24:19;;;;;;;5.40;4.35;;;;;;;;;;5069747;28;20051;-68
2022/05/04 03:26:44;;;;;;;6.93;4.15;;;;;;;;;;5083022;28;20087;-65
2022/05/04 03:29:10;;;;;;;6.25;4.03;;;;;;;;;;5083011;28;20026;-66
2022/05/04 03:31:36;;;;;;;7.00;4.50;;;;;;;;;;5082648;28;20075;-67
2022/05/04 03:34:02;;;;;;;5.53;4.68;;;;;;;;;;5081417;28;20028;-72
2022/05/04 03:36:27;;;;;;;8.30;7.40;;;;;;;;;;5082745;28;20026;-66
2022/05/04 03:38:53;;;;;;;5.97;5.38;;;;;;;;;;5083426;28;20031;-68
2022/05/04 03:41:18;;;;;;;6.78;4.93;;;;;;;;;;5082989;28;20119;-68
2022/05/04 03:43:43;;;;;;;5.35;4.60;;;;;;;;;;5082083;28;20483;-67
2022/05/04 03:46:11;;;;;;;4.40;4.00;;;;;;;;;;5082418;28;20028;-65
2022/05/04 03:48:37;;;;;;;4.90;4.40;;;;;;;;;;5074642;28;20020;-69
2022/05/04 03:51:02;;;;;;;5.35;4.25;;;;;;;;;;5072643;28;20043;-65
2022/05/04 03:53:27;;;;;;;7.78;5.07;;;;;;;;;;5069354;28;20122;-72
2022/05/04 03:55:53;;;;;;;5.03;4.45;;;;;;;;;;5074685;28;20071;-70
2022/05/04 03:58:18;;;;;;;6.55;4.65;;;;;;;;;;5081621;28;20490;-69
2022/05/04 04:00:43;;;;;;;8.52;4.85;;;;;;;;;;5082375;28;20036;-69
2022/05/04 04:03:08;;;;;;;8.35;5.80;;;;;;;;;;5081836;28;20470;-67
2022/05/04 04:05:34;;;;;;;10.35;5.40;;;;;;;;;;5081516;28;20040;-68
2022/05/04 04:07:59;;;;;;;11.48;6.18;;;;;;;;;;5078664;28;20059;-65
2022/05/04 04:10:24;;;;;;;11.07;5.70;;;;;;;;;;5054825;28;20028;-67
2022/05/04 04:12:50;;;;;;;11.35;5.60;;;;;;;;;;5068805;28;20431;-66
2022/05/04 04:15:15;;;;;;;6.57;4.80;;;;;;;;;;5065283;28;20056;-66
2022/05/04 04:17:40;;;;;;;6.97;5.65;;;;;;;;;;5065858;28;20024;-72
2022/05/04 04:22:50;;;;;;;5.90;4.85;;;;;;;;;;5068884;28;20121;-67
2022/05/04 04:25:16;;;;;;;7.22;5.50;;;;;;;;;;5068054;28;20441;-65
2022/05/04 04:27:41;;;;;;;9.02;5.47;;;;;;;;;;5069040;28;20035;-71
2022/05/04 04:30:06;;;;;;;9.60;5.68;;;;;;;;;;5068820;28;20028;-70
2022/05/04 04:32:32;;;;;;;9.45;5.90;;;;;;;;;;5071516;28;20028;-65
2022/05/04 04:34:58;;;;;;;8.68;6.18;;;;;;;;;;5079569;28;20086;-66
2022/05/04 04:37:23;;;;;;;12.65;8.38;;;;;;;;;;5070515;28;20038;-66
2022/05/04 04:39:48;;;;;;;13.38;8.52;;;;;;;;;;5081410;28;20524;-73
2022/05/04 04:42:14;;;;;;;12.45;8.68;;;;;;;;;;5080240;28;20430;-67
2022/05/04 04:44:39;;;;;;;11.60;7.75;;;;;;;;;;5081333;28;20032;-67
2022/05/04 04:47:04;;;;;;;12.25;8.63;;;;;;;;;;5081219;28;20024;-66
2022/05/04 04:49:30;;;;;;;26.23;19.17;;;;;;;;;;5076200;28;20042;-64
2022/05/04 04:51:55;;;;;;;19.92;12.95;;;;;;;;;;5067111;28;20027;-65
2022/05/04 04:54:20;;;;;;;14.10;9.98;;;;;;;;;;5066964;28;20028;-65
2022/05/04 04:56:46;;;;;;;17.92;11.73;;;;;;;;;;5067537;28;20039;-67
2022/05/04 04:59:11;;;;;;;20.05;13.93;;;;;;;;;;5067238;28;20090;-68
2022/05/04 05:01:36;;;;;;;32.03;22.02;;;;;;;;;;5067428;28;20081;-69
2022/05/04 05:04:02;;;;;;;49.10;35.53;;;;;;;;;;5067817;28;20031;-67
2022/05/04 05:06:27;;;;;;;24.33;19.67;;;;;;;;;;5068154;28;21127;-67
2022/05/04 05:08:53;;;;;;;20.05;12.80;;;;;;;;;;5067796;28;20028;-67
2022/05/04 05:11:19;;;;;;;11.93;9.10;;;;;;;;;;5067685;28;20023;-65
2022/05/04 05:16:28;;;;;;;12.85;9.75;;;;;;;;;;5068269;28;20047;-67
2022/05/04 05:18:53;;;;;;;11.32;9.63;;;;;;;;;;5067896;28;20032;-67
2022/05/04 05:21:19;;;;;;;7.13;5.80;;;;;;;;;;5076368;28;20036;-64
2022/05/04 05:23:45;;;;;;;4.50;3.88;;;;;;;;;;5080228;28;20043;-70
2022/05/04 05:26:10;;;;;;;5.50;3.95;;;;;;;;;;5080886;28;20104;-66
2022/05/04 05:28:35;;;;;;;5.07;4.10;;;;;;;;;;5080610;28;20434;-72
2022/05/04 05:31:01;;;;;;;5.63;4.57;;;;;;;;;;5080812;28;20903;-68
2022/05/04 05:33:26;;;;;;;10.75;6.80;;;;;;;;;;5071499;28;20073;-68
2022/05/04 05:35:51;;;;;;;10.13;6.80;;;;;;;;;;5078889;28;20039;-65
2022/05/04 05:38:17;;;;;;;6.32;4.82;;;;;;;;;;5080184;28;20021;-67
2022/05/04 05:40:42;;;;;;;6.82;4.82;;;;;;;;;;5080630;28;20031;-66
2022/05/04 05:43:08;;;;;;;7.25;4.60;;;;;;;;;;5080902;28;20032;-64
2022/05/04 05:45:33;;;;;;;5.30;4.07;;;;;;;;;;5068682;28;20358;-65
2022/05/04 05:47:58;;;;;;;6.18;4.28;;;;;;;;;;5081379;28;20185;-71
2022/05/04 05:50:24;;;;;;;9.77;5.50;;;;;;;;;;5080976;28;20093;-66
2022/05/04 05:52:49;;;;;;;6.30;4.85;;;;;;;;;;5081548;28;20099;-74
2022/05/04 05:55:15;;;;;;;5.38;4.25;;;;;;;;;;5079556;28;20020;-68
2022/05/04 05:57:40;;;;;;;7.22;4.00;;;;;;;;;;5080163;28;20023;-67
2022/05/04 06:00:05;;;;;;;7.15;4.70;;;;;;;;;;5080179;28;20500;-67
2022/05/04 06:02:33;;;;;;;4.25;3.30;;;;;;;;;;5079684;28;20035;-69
2022/05/04 06:04:58;;;;;;;4.00;3.30;;;;;;;;;;5080789;28;20038;-67
2022/05/04 06:07:23;;;;;;;3.97;3.55;;;;;;;;;;5080524;28;20268;-70
2022/05/04 06:09:49;;;;;;;5.05;3.10;;;;;;;;;;5079748;28;20432;-71
2022/05/04 06:12:14;;;;;;;8.20;3.92;;;;;;;;;;5081823;28;20042;-70
2022/05/04 06:14:39;;;;;;;7.97;3.47;;;;;;;;;;5080865;28;20111;-68
2022/05/04 06:17:05;;;;;;;6.82;3.80;;;;;;;;;;5080533;28;20024;-68
2022/05/04 06:19:30;;;;;;;5.50;4.07;;;;;;;;;;5081340;28;20036;-71
2022/05/04 06:21:55;;;;;;;4.22;3.50;;;;;;;;;;5081355;28;20115;-71
2022/05/04 06:24:21;;;;;;;8.38;5.18;;;;;;;;;;5080682;28;20040;-68
2022/05/04 06:26:46;;;;;;;8.63;5.45;;;;;;;;;;5080869;28;20335;-69
2022/05/04 06:29:11;;;;;;;4.25;3.85;;;;;;;;;;5068813;28;20467;-71
2022/05/04 06:34:22;;;;;;;4.38;2.95;;;;;;;;;;5085150;28;20835;-66
2022/05/04 06:36:47;;;;;;;6.13;3.85;;;;;;;;;;5080604;28;20117;-67
2022/05/04 06:39:12;;;;;;;5.65;3.25;;;;;;;;;;5078639;28;20431;-67
2022/05/04 06:41:38;;;;;;;6.80;3.45;;;;;;;;;;5078275;28;20089;-67
2022/05/04 06:44:04;;;;;;;5.32;3.83;;;;;;;;;;5077652;28;20024;-67
2022/05/04 06:46:30;;;;;;;5.78;3.42;;;;;;;;;;5079815;28;20478;-69
2022/05/04 06:48:55;;;;;;;4.32;3.13;;;;;;;;;;5080412;28;20028;-67
2022/05/04 06:51:20;;;;;;;3.08;2.40;;;;;;;;;;5080557;28;20024;-70
2022/05/04 06:53:46;;;;;;;6.95;2.78;;;;;;;;;;5080234;28;20028;-68
2022/05/04 06:56:11;;;;;;;3.28;2.53;;;;;;;;;;5080516;28;20024;-66
2022/05/04 06:58:36;;;;;;;6.68;2.42;;;;;;;;;;5079756;28;20115;-67
2022/05/04 07:01:05;;;;;;;4.18;2.88;;;;;;;;;;5072956;28;20024;-66
2022/05/04 07:03:30;;;;;;;3.08;2.53;;;;;;;;;;5075538;28;20556;-67
2022/05/04 07:05:55;;;;;;;3.13;2.30;;;;;;;;;;5079119;28;20032;-69
2022/05/04 07:08:21;;;;;;;5.72;2.45;;;;;;;;;;5083094;28;20036;-67
2022/05/04 07:10:46;;;;;;;8.93;2.88;;;;;;;;;;5083309;28;20035;-72
2022/05/04 07:13:11;;;;;;;5.00;2.80;;;;;;;;;;5083568;28;20131;-64
2022/05/04 07:15:37;;;;;;;3.25;2.42;;;;;;;;;;5080645;28;20484;-69
2022/05/04 07:18:04;;;;;;;3.90;3.00;;;;;;;;;;5070247;28;20028;-65
2022/05/04 07:20:29;;;;;;;3.95;2.70;;;;;;;;;;5069401;28;20031;-72
2022/05/04 07:22:54;;;;;;;5.57;3.47;;;;;;;;;;5068918;28;20085;-68
2022/05/04 07:25:20;;;;;;;5.38;2.50;;;;;;;;;;5072336;28;20085;-65
2022/05/04 07:27:45;;;;;;;4.25;2.80;;;;;;;;;;5082457;28;20379;-68
2022/05/04 07:30:11;;;;;;;4.05;3.00;;;;;;;;;;5083683;28;20036;-67
2022/05/04 07:32:36;;;;;;;4.43;3.30;;;;;;;;;;5083500;28;20024;-70
2022/05/04 07:35:02;;;;;;;46.45;30.00;;;;;;;;;;5065111;28;20036;-67
2022/05/04 07:37:27;;;;;;;8.57;6.45;;;;;;;;;;5082350;28;20088;-69
2022/05/04 07:42:39;;;;;;;3.55;2.80;;;;;;;;;;5083422;28;20382;-69
2022/05/04 07:45:06;;;;;;;6.60;3.60;;;;;;;;;;5082308;28;20028;-69
2022/05/04 07:47:33;;;;;;;5.10;2.85;;;;;;;;;;5082458;28;20060;-66
2022/05/04 07:49:58;;;;;;;3.45;2.80;;;;;;;;;;5082696;28;20085;-67
2022/05/04 07:52:24;;;;;;;5.35;2.95;;;;;;;;;;5074254;28;20424;-67
2022/05/04 07:54:49;;;;;;;5.53;3.05;;;;;;;;;;5074989;28;20050;-65
2022/05/04 07:57:15;;;;;;;4.25;3.10;;;;;;;;;;5083550;28;20025;-68
2022/05/04 07:59:40;;;;;;;6.22;3.10;;;;;;;;;;5082594;28;20093;-72
2022/05/04 08:04:50;;;;;;;4.60;2.83;;;;;;;;;;5082230;28;20417;-69
2022/05/04 08:07:19;;;;;;;5.00;3.13;;;;;;;;;;5063736;28;20048;-66
2022/05/04 08:09:44;;;;;;;4.18;2.95;;;;;;;;;;5082153;28;20039;-66
2022/05/04 08:12:12;;;;;;;4.20;3.08;;;;;;;;;;5082487;28;20028;-67
2022/05/04 08:14:39;;;;;;;6.05;2.83;;;;;;;;;;5073387;28;20056;-67
2022/05/04 08:17:05;;;;;;;3.97;2.80;;;;;;;;;;5067131;28;20020;-66
2022/05/04 08:19:30;;;;;;;4.53;2.80;;;;;;;;;;5070510;28;20023;-67
2022/05/04 08:21:56;;;;;;;5.72;2.90;;;;;;;;;;5082389;28;20067;-71
2022/05/04 08:24:22;;;;;;;4.10;2.80;;;;;;;;;;5081793;28;20443;-68
2022/05/04 08:26:48;;;;;;;6.43;2.58;;;;;;;;;;5082139;28;20031;-67
2022/05/04 08:29:14;;;;;;;2.95;2.33;;;;;;;;;;5074570;28;20499;-67
2022/05/04 08:31:39;;;;;;;3.35;2.45;;;;;;;;;;5077300;28;20028;-64
2022/05/04 08:34:04;;;;;;;4.95;2.45;;;;;;;;;;5082482;28;20092;-66
2022/05/04 08:36:30;;;;;;;2.72;2.22;;;;;;;;;;5083156;28;20359;-66
2022/05/04 08:38:55;;;;;;;2.85;2.42;;;;;;;;;;5081797;28;20031;-71
2022/05/04 08:41:22;;;;;;;5.70;2.88;;;;;;;;;;5080422;28;20036;-67
2022/05/04 08:43:48;;;;;;;2.65;2.30;;;;;;;;;;5080967;28;20036;-65
2022/05/04 08:46:15;;;;;;;2.92;2.30;;;;;;;;;;5068814;28;20031;-66
2022/05/04 08:48:40;;;;;;;3.72;2.55;;;;;;;;;;5076782;28;20031;-72
2022/05/04 08:51:07;;;;;;;4.88;2.38;;;;;;;;;;5075993;28;20350;-66
2022/05/04 08:53:33;;;;;;;3.35;2.25;;;;;;;;;;5082403;28;20040;-65
2022/05/04 08:55:59;;;;;;;2.67;2.20;;;;;;;;;;5081720;28;20028;-64
2022/05/04 08:58:24;;;;;;;2.63;2.35;;;;;;;;;;5081491;28;20032;-67
2022/05/04 09:00:50;;;;;;;3.78;2.33;;;;;;;;;;5080799;28;20431;-66
2022/05/04 09:03:15;;;;;;;3.38;2.45;;;;;;;;;;5081852;28;20350;-66
2022/05/04 09:05:45;;;;;;;4.07;2.35;;;;;;;;;;5082203;28;20722;-71
2022/05/04 09:08:10;;;;;;;3.85;2.83;;;;;;;;;;5081674;28;20020;-65
2022/05/04 09:10:39;;;;;;;6.13;2.75;;;;;;;;;;5080160;28;20525;-68
2022/05/04 09:13:05;;;;;;;;;;;;;;;;;;5081585;28;20035;-68
2022/05/04 09:15:32;;;;;;;4.43;2.70;;;;;;;;;;5082011;28;19912;-68
2022/05/04 09:18:04;;;;;;;4.30;3.10;;;;;;;;;;5082161;28;20127;-72
2022/05/04 09:20:49;;;;;;;4.20;2.97;;;;;;;;;;5082121;28;20020;-66
2022/05/04 09:23:24;;;;;;;5.40;2.80;;;;;;;;;;5081668;28;20024;-67
2022/05/04 09:25:49;;;;;;;4.60;3.00;;;;;;;;;;5074771;28;20380;-70
2022/05/04 09:28:15;;;;;;;2.85;2.50;;;;;;;;;;5059890;28;20505;-68
2022/05/04 09:30:45;;;;;;;3.17;2.63;;;;;;;;;;5080598;28;20024;-66
2022/05/04 09:33:13;;;;;;;4.53;2.72;;;;;;;;;;5076107;28;20047;-67
2022/05/04 09:35:41;;;;;;;3.50;2.70;;;;;;;;;;5065265;28;20447;-71
2022/05/04 09:46:36;;;;;;;4.82;3.30;;;;;;;;;;5079942;28;20592;-71
2022/05/04 09:49:11;;;;;;;4.90;3.22;;;;;;;;;;5081089;28;20074;-71
2022/05/04 09:51:37;;;;;;;3.67;3.00;;;;;;;;;;5081405;28;20035;-75
2022/05/04 09:54:18;;;;;;;5.43;3.50;;;;;;;;;;5080321;28;20032;-73
2022/05/04 09:56:47;;;;;;;6.85;3.60;;;;;;;;;;5065639;28;20036;-67
2022/05/04 09:59:13;;;;;;;4.30;2.95;;;;;;;;;;5081291;28;20081;-66
2022/05/04 10:01:39;;;;;;;4.85;2.85;;;;;;;;;;5080792;28;20028;-66
2022/05/04 10:04:05;;;;;;;6.85;5.28;;;;;;;;;;5080267;28;20445;-66
2022/05/04 10:06:30;;;;;;;4.03;3.30;;;;;;;;;;5079898;28;20076;-72
2022/05/04 10:08:56;;;;;;;4.32;3.45;;;;;;;;;;5080797;28;20077;-68
2022/05/04 10:11:22;;;;;;;7.45;2.75;;;;;;;;;;5078592;28;20060;-72
2022/05/04 10:13:51;;;;;;;3.75;2.85;;;;;;;;;;5071277;28;20016;-67
2022/05/04 10:16:17;;;;;;;5.00;3.30;;;;;;;;;;5078299;28;20020;-69
2022/05/04 10:18:45;;;;;;;8.43;3.85;;;;;;;;;;5079264;28;20077;-67
2022/05/04 10:21:14;;;;;;;4.13;3.10;;;;;;;;;;5080739;28;20035;-71
2022/05/04 10:23:42;;;;;;;8.80;3.08;;;;;;;;;;5084777;28;20036;-68
2022/05/04 10:26:10;;;;;;;4.70;2.60;;;;;;;;;;5085460;28;20024;-66
2022/05/04 10:28:37;;;;;;;3.40;2.33;;;;;;;;;;5081235;28;20023;-66
2022/05/04 10:31:06;;;;;;;3.67;2.67;;;;;;;;;;5081000;28;20031;-71
2022/05/04 10:33:33;;;;;;;2.88;2.45;;;;;;;;;;5081068;28;20015;-67
2022/05/04 10:36:17;;;;;;;5.40;2.40;;;;;;;;;;5081153;28;20016;-68
2022/05/04 10:38:43;;;;;;;4.25;3.00;;;;;;;;;;5081702;28;20077;-68
2022/05/04 10:41:09;;;;;;;4.00;2.55;;;;;;;;;;5076459;28;20042;-67
2022/05/04 10:43:36;;;;;;;4.53;3.28;;;;;;;;;;5076085;28;20028;-67
2022/05/04 10:46:05;;;;;;;3.70;2.80;;;;;;;;;;5085465;28;20047;-67
2022/05/04 10:48:30;;;;;;;4.90;3.13;;;;;;;;;;5084525;28;20423;-68
2022/05/04 10:50:55;;;;;;;9.13;3.25;;;;;;;;;;5083814;28;20039;-68
2022/05/04 10:53:24;;;;;;;5.78;4.32;;;;;;;;;;5060077;28;20103;-66
2022/05/04 10:56:01;;;;;;;4.47;3.10;;;;;;;;;;5071166;28;20028;-68
2022/05/04 10:58:34;;;;;;;4.72;2.47;;;;;;;;;;5045121;28;20408;-67
2022/05/04 11:01:03;;;;;;;6.00;2.75;;;;;;;;;;5080855;28;20032;-70
2022/05/04 11:03:33;;;;;;;6.68;3.33;;;;;;;;;;5083270;28;20039;-67
2022/05/04 11:06:01;;;;;;;5.45;3.35;;;;;;;;;;5083454;28;20055;-66
2022/05/04 11:08:33;;;;;;;6.85;4.80;;;;;;;;;;5082777;28;20068;-67
2022/05/04 11:10:58;;;;;;;10.50;5.70;;;;;;;;;;5077296;28;20035;-72
2022/05/04 11:13:24;;;;;;;6.63;3.92;;;;;;;;;;5071077;28;20027;-69
2022/05/04 11:15:55;;;;;;;4.18;3.33;;;;;;;;;;5076666;28;20080;-68
2022/05/04 11:18:20;;;;;;;6.95;4.57;;;;;;;;;;5055282;28;20529;-67
2022/05/04 11:20:46;;;;;;;5.60;3.50;;;;;;;;;;5071364;28;20117;-68
2022/05/04 11:23:12;;;;;;;6.07;3.50;;;;;;;;;;5083108;28;20032;-67
2022/05/04 11:25:37;;;;;;;3.63;3.17;;;;;;;;;;5084312;28;20099;-65
2022/05/04 11:28:03;;;;;;;7.68;4.38;;;;;;;;;;5083834;28;20016;-68
2022/05/04 11:30:28;;;;;;;6.97;3.92;;;;;;;;;;5069743;28;20097;-74
2022/05/04 11:32:53;;;;;;;5.10;3.65;;;;;;;;;;5069936;28;20028;-68
2022/05/04 11:35:19;;;;;;;5.13;3.80;;;;;;;;;;5079314;28;20020;-67
2022/05/04 11:37:44;;;;;;;3.92;3.53;;;;;;;;;;5057403;28;20059;-67
2022/05/04 11:40:14;;;;;;;3.90;3.47;;;;;;;;;;5083898;28;20020;-68
2022/05/04 11:42:40;;;;;;;5.63;3.17;;;;;;;;;;5083521;28;20020;-68
2022/05/04 11:45:06;;;;;;;3.25;2.95;;;;;;;;;;5083240;28;20028;-69
2022/05/04 11:47:31;;;;;;;7.22;3.30;;;;;;;;;;5083686;28;20074;-69
2022/05/04 11:49:56;;;;;;;6.35;4.03;;;;;;;;;;5083629;28;20427;-70
2022/05/04 11:52:22;;;;;;;4.57;3.17;;;;;;;;;;5083375;28;20098;-69
2022/05/04 11:54:47;;;;;;;23.92;5.55;;;;;;;;;;5081677;28;20020;-70
2022/05/04 11:57:13;;;;;;;15.20;7.20;;;;;;;;;;5082996;28;20031;-69
2022/05/04 11:59:38;;;;;;;12.35;5.95;;;;;;;;;;5077845;28;20121;-70
2022/05/04 12:02:05;;;;;;;6.18;4.43;;;;;;;;;;5069069;28;20028;-67
2022/05/04 12:04:30;;;;;;;8.38;4.75;;;;;;;;;;5074745;28;20036;-65
2022/05/04 12:06:59;;;;;;;8.55;5.85;;;;;;;;;;5082451;28;20508;-66
2022/05/04 12:09:25;;;;;;;7.95;5.32;;;;;;;;;;5079296;28;20024;-69
2022/05/04 12:11:50;;;;;;;9.88;5.68;;;;;;;;;;5068583;28;20068;-69
2022/05/04 12:14:16;;;;;;;13.57;8.45;;;;;;;;;;5077671;28;20024;-67
2022/05/04 12:16:42;;;;;;;21.40;15.27;;;;;;;;;;5082910;28;20111;-69
2022/05/04 12:19:08;;;;;;;22.90;16.85;;;;;;;;;;5065190;28;20111;-69
2022/05/04 12:21:33;;;;;;;22.67;17.08;;;;;;;;;;5082551;28;20046;-74
2022/05/04 12:24:00;;;;;;;22.25;17.30;;;;;;;;;;5072680;28;20042;-67
2022/05/04 12:26:25;;;;;;;16.20;13.70;;;;;;;;;;5070770;28;20039;-67
2022/05/04 12:34:23;;;;;;;9.35;7.13;;;;;;;;;;5069365;28;20047;-69
2022/05/04 12:36:49;;;;;;;9.93;7.78;;;;;;;;;;5069396;28;20375;-69
2022/05/04 12:39:14;;;;;;;14.68;10.57;;;;;;;;;;5069693;28;20020;-65
2022/05/04 12:41:42;;;;;;;18.77;10.98;;;;;;;;;;5073645;28;20097;-64
2022/05/04 12:44:08;;;;;;;10.57;7.90;;;;;;;;;;5078761;28;20427;-70
2022/05/04 12:46:34;;;;;;;9.32;6.60;;;;;;;;;;5072946;28;20077;-64
2022/05/04 12:48:59;;;;;;;15.25;6.05;;;;;;;;;;5072586;28;20035;-65
2022/05/04 12:51:24;;;;;;;13.20;6.10;;;;;;;;;;5071207;28;20040;-65
2022/05/04 12:53:50;;;;;;;10.52;5.78;;;;;;;;;;5068818;28;20106;-68
2022/05/04 12:59:03;;;;;;;4.18;2.92;;;;;;;;;;5074352;28;20359;-70
2022/05/04 13:01:30;;;;;;;6.10;3.20;;;;;;;;;;5077908;28;20502;-66
2022/05/04 13:03:55;;;;;;;3.88;2.45;;;;;;;;;;5069456;28;20445;-64
2022/05/04 13:06:21;;;;;;;3.78;2.67;;;;;;;;;;5078922;28;20052;-67
2022/05/04 13:08:48;;;;;;;6.93;3.05;;;;;;;;;;5079280;28;20035;-67
2022/05/04 13:11:14;;;;;;;2.97;2.42;;;;;;;;;;5078220;28;20038;-66
2022/05/04 13:13:39;;;;;;;3.30;2.78;;;;;;;;;;5080698;28;20032;-65
2022/05/04 13:16:04;;;;;;;3.13;2.80;;;;;;;;;;5079822;28;20051;-66
2022/05/04 13:18:30;;;;;;;4.70;3.47;;;;;;;;;;5076095;28;20023;-70
2022/05/04 13:20:55;;;;;;;6.18;3.25;;;;;;;;;;5069648;28;20024;-64
2022/05/04 13:23:20;;;;;;;4.30;2.90;;;;;;;;;;5078778;28;20062;-67
2022/05/04 13:25:46;;;;;;;2.80;2.40;;;;;;;;;;5079047;28;20055;-67
2022/05/04 13:28:11;;;;;;;3.97;2.95;;;;;;;;;;5080118;28;20024;-66
2022/05/04 13:30:36;;;;;;;3.63;2.83;;;;;;;;;;5079962;28;20028;-68
2022/05/04 13:33:02;;;;;;;3.60;3.00;;;;;;;;;;5079742;28;20031;-68
2022/05/04 13:35:28;;;;;;;2.85;2.60;;;;;;;;;;5079418;28;20070;-68
2022/05/04 13:37:53;;;;;;;3.92;2.67;;;;;;;;;;5068380;28;20028;-65
2022/05/04 13:40:19;;;;;;;4.05;2.40;;;;;;;;;;5068533;28;20031;-65
2022/05/04 13:42:44;;;;;;;3.28;2.50;;;;;;;;;;5079883;28;20031;-66
2022/05/04 13:45:10;;;;;;;4.05;2.63;;;;;;;;;;5078828;28;20032;-70
2022/05/04 13:47:36;;;;;;;3.40;2.63;;;;;;;;;;5080546;28;20028;-66
2022/05/04 13:50:02;;;;;;;7.18;6.57;;;;;;;;;;5080553;28;20548;-68
2022/05/04 13:55:11;;;;;;;3.95;3.22;;;;;;;;;;5071201;28;20027;-67
2022/05/04 13:57:37;;;;;;;6.32;3.00;;;;;;;;;;5068233;28;20028;-66
2022/05/04 14:00:03;;;;;;;3.78;2.60;;;;;;;;;;5068262;28;20535;-66
2022/05/04 14:02:28;;;;;;;3.33;2.30;;;;;;;;;;5067714;28;20121;-66
2022/05/04 14:04:53;;;;;;;2.85;2.60;;;;;;;;;;5068449;28;20160;-66
2022/05/04 14:07:19;;;;;;;4.18;2.72;;;;;;;;;;5067151;28;20528;-69
2022/05/04 14:09:45;;;;;;;2.78;2.58;;;;;;;;;;5072374;28;20055;-69
2022/05/04 14:12:10;;;;;;;3.80;2.40;;;;;;;;;;5081216;28;20062;-67
2022/05/04 14:17:21;;;;;;;2.90;2.40;;;;;;;;;;5071461;28;20096;-72
2022/05/04 14:19:46;;;;;;;5.60;4.43;;;;;;;;;;5072493;28;20020;-69
2022/05/04 14:22:11;;;;;;;3.58;2.90;;;;;;;;;;5073200;28;20028;-67
2022/05/04 14:24:37;;;;;;;4.05;2.60;;;;;;;;;;5076532;28;20150;-67
2022/05/04 14:27:02;;;;;;;5.68;2.60;;;;;;;;;;5083129;28;20032;-67
2022/05/04 14:29:28;;;;;;;3.08;2.78;;;;;;;;;;5082751;28;20020;-69
2022/05/04 14:31:53;;;;;;;4.28;2.30;;;;;;;;;;5084012;28;20451;-65
2022/05/04 14:34:18;;;;;;;5.63;2.58;;;;;;;;;;5082885;28;20448;-66
2022/05/04 14:36:44;;;;;;;2.45;2.25;;;;;;;;;;5083778;28;20028;-66
2022/05/04 14:39:09;;;;;;;4.50;2.50;;;;;;;;;;5077782;28;20027;-69
2022/05/04 14:41:34;;;;;;;3.63;2.83;;;;;;;;;;5079443;28;20028;-68
2022/05/04 14:44:00;;;;;;;3.00;2.08;;;;;;;;;;5084937;28;20112;-68
2022/05/04 14:46:26;;;;;;;3.55;2.25;;;;;;;;;;5084314;28;20123;-70
2022/05/04 14:48:52;;;;;;;4.82;2.35;;;;;;;;;;5085612;28;20480;-67
2022/05/04 14:51:17;;;;;;;2.50;2.15;;;;;;;;;;5084330;28;20032;-68
2022/05/04 14:53:46;;;;;;;4.10;2.65;;;;;;;;;;5084742;28;20024;-67
2022/05/04 14:56:11;;;;;;;;;;;;;;;;;;5084543;28;20024;-66
2022/05/04 14:58:36;;;;;;;3.70;2.60;;;;;;;;;;5081434;28;19922;-65
2022/05/04 15:01:02;;;;;;;4.75;2.08;;;;;;;;;;5070148;28;20339;-77
2022/05/04 15:06:11;;;;;;;2.00;1.50;;;;;;;;;;5069222;28;20063;-73
2022/05/04 15:08:36;;;;;;;1.52;1.40;;;;;;;;;;5069067;28;20015;-69
2022/05/04 15:11:02;;;;;;;1.98;1.48;;;;;;;;;;5068721;28;20032;-68
2022/05/04 15:13:27;;;;;;;1.60;1.50;;;;;;;;;;5049731;28;20024;-68
2022/05/04 15:15:53;;;;;;;3.70;1.40;;;;;;;;;;5069809;28;20454;-65
2022/05/04 15:18:18;;;;;;;2.60;1.45;;;;;;;;;;5070217;28;20028;-66
2022/05/04 15:20:44;;;;;;;3.47;1.33;;;;;;;;;;5069653;28;20020;-65